createdAt,value
2017-06-05T00:01:14.372Z,16.90
2017-06-05T00:03:40.864Z,16.90
2017-06-05T00:06:08.069Z,16.70
2017-06-05T00:08:34.474Z,16.70
2017-06-05T00:11:00.930Z,16.80
2017-06-05T00:13:27.365Z,16.70
2017-06-05T00:15:53.781Z,16.70
2017-06-05T00:18:20.321Z,16.70
2017-06-05T00:20:46.766Z,16.60
2017-06-05T00:23:13.279Z,16.60
2017-06-05T00:25:39.729Z,16.50
2017-06-05T00:28:06.189Z,16.60
2017-06-05T00:30:32.603Z,16.50
2017-06-05T00:32:59.028Z,16.50
2017-06-05T00:35:25.472Z,16.60
2017-06-05T00:37:52.572Z,16.50
2017-06-05T00:40:19.004Z,16.40
2017-06-05T00:42:45.450Z,16.40
2017-06-05T00:45:11.914Z,16.40
2017-06-05T00:47:38.407Z,16.30
2017-06-05T00:50:04.840Z,16.40
2017-06-05T00:52:31.257Z,16.30
2017-06-05T00:54:57.748Z,16.20
2017-06-05T00:57:24.198Z,16.10
2017-06-05T00:59:51.408Z,16.20
2017-06-05T01:02:17.825Z,16.20
2017-06-05T01:04:44.279Z,16.20
2017-06-05T01:07:10.747Z,16.10
2017-06-05T01:09:37.199Z,16.00
2017-06-05T01:12:03.644Z,15.80
2017-06-05T01:14:30.097Z,15.90
2017-06-05T01:16:56.611Z,15.90
2017-06-05T01:19:23.082Z,15.80
2017-06-05T01:21:49.559Z,15.80
2017-06-05T01:24:16.762Z,15.70
2017-06-05T01:26:43.204Z,15.70
2017-06-05T01:29:10.340Z,15.60
2017-06-05T01:31:36.820Z,15.70
2017-06-05T01:34:04.035Z,15.50
2017-06-05T01:36:30.481Z,15.50
2017-06-05T01:38:56.959Z,15.50
2017-06-05T01:41:23.425Z,15.50
2017-06-05T01:43:49.874Z,15.50
2017-06-05T01:46:16.333Z,15.50
2017-06-05T01:48:43.530Z,15.50
2017-06-05T01:51:09.978Z,15.50
2017-06-05T01:53:36.448Z,15.50
2017-06-05T01:56:03.639Z,15.50
2017-06-05T01:58:30.245Z,15.50
2017-06-05T02:00:57.588Z,15.50
2017-06-05T02:03:24.969Z,15.50
2017-06-05T02:05:51.396Z,15.50
2017-06-05T02:08:17.850Z,15.50
2017-06-05T02:10:45.068Z,15.50
2017-06-05T02:13:12.278Z,15.40
2017-06-05T02:15:38.749Z,15.40
2017-06-05T02:18:05.937Z,15.40
2017-06-05T02:20:32.362Z,15.40
2017-06-05T02:22:58.940Z,15.40
2017-06-05T02:25:25.367Z,15.40
2017-06-05T02:27:51.809Z,15.40
2017-06-05T02:30:18.341Z,15.40
2017-06-05T02:32:44.929Z,15.40
2017-06-05T02:35:11.391Z,15.40
2017-06-05T02:37:37.845Z,15.40
2017-06-05T02:40:04.301Z,15.30
2017-06-05T02:42:31.497Z,15.20
2017-06-05T02:44:58.417Z,15.20
2017-06-05T02:47:24.892Z,15.10
2017-06-05T02:49:51.358Z,15.10
2017-06-05T02:52:17.798Z,15.20
2017-06-05T02:54:44.220Z,15.20
2017-06-05T02:57:11.386Z,15.10
2017-06-05T02:59:39.189Z,15.20
2017-06-05T03:02:05.619Z,15.10
2017-06-05T03:04:33.025Z,15.10
2017-06-05T03:06:59.499Z,15.10
2017-06-05T03:09:26.927Z,15.10
2017-06-05T03:11:54.108Z,15.10
2017-06-05T03:14:20.606Z,15.00
2017-06-05T03:16:47.798Z,15.00
2017-06-05T03:19:14.215Z,15.00
2017-06-05T03:21:41.268Z,15.00
2017-06-05T03:24:07.718Z,14.90
2017-06-05T03:26:34.215Z,15.00
2017-06-05T03:29:01.412Z,15.20
2017-06-05T03:31:27.890Z,15.20
2017-06-05T03:33:55.146Z,15.20
2017-06-05T03:36:21.634Z,15.20
2017-06-05T03:38:48.100Z,15.30
2017-06-05T03:41:15.303Z,15.20
2017-06-05T03:43:41.798Z,15.20
2017-06-05T03:46:08.980Z,15.20
2017-06-05T03:48:35.969Z,15.20
2017-06-05T03:51:02.629Z,15.10
2017-06-05T03:53:29.116Z,15.20
2017-06-05T03:55:55.567Z,15.20
2017-06-05T03:58:22.096Z,15.30
2017-06-05T04:00:48.800Z,15.10
2017-06-05T04:03:15.321Z,15.20
2017-06-05T04:05:41.794Z,15.20
2017-06-05T04:08:08.241Z,15.20
2017-06-05T04:10:34.734Z,15.20
2017-06-05T04:13:01.237Z,15.10
2017-06-05T04:15:28.468Z,15.40
2017-06-05T04:17:54.959Z,15.30
2017-06-05T04:20:21.447Z,15.40
2017-06-05T04:22:48.805Z,15.50
2017-06-05T04:25:16.002Z,15.60
2017-06-05T04:27:43.280Z,15.60
2017-06-05T04:30:09.720Z,15.80
2017-06-05T04:32:36.146Z,15.80
2017-06-05T04:35:03.634Z,16.00
2017-06-05T04:37:30.953Z,16.30
2017-06-05T04:39:57.384Z,16.30
2017-06-05T04:42:23.829Z,16.30
2017-06-05T04:44:50.257Z,16.30
2017-06-05T04:47:16.745Z,16.30
2017-06-05T04:49:43.197Z,16.30
2017-06-05T04:52:09.633Z,16.40
2017-06-05T04:54:36.059Z,16.50
2017-06-05T04:57:02.523Z,16.50
2017-06-05T04:59:28.944Z,16.60
2017-06-05T05:01:55.384Z,16.60
2017-06-05T05:04:21.807Z,16.80
2017-06-05T05:06:48.242Z,16.90
2017-06-05T05:09:14.681Z,17.00
2017-06-05T05:11:41.186Z,17.10
2017-06-05T05:14:07.635Z,17.20
2017-06-05T05:16:34.079Z,17.30
2017-06-05T05:19:00.559Z,17.40
2017-06-05T05:21:27.750Z,17.00
2017-06-05T05:23:54.197Z,16.90
2017-06-05T05:26:20.894Z,16.90
2017-06-05T05:28:47.330Z,16.80
2017-06-05T05:31:13.762Z,16.80
2017-06-05T05:33:40.308Z,16.90
2017-06-05T05:36:07.598Z,17.10
2017-06-05T05:38:34.048Z,17.30
2017-06-05T05:41:00.576Z,17.50
2017-06-05T05:43:27.798Z,17.60
2017-06-05T05:45:54.231Z,17.60
2017-06-05T05:48:20.699Z,17.60
2017-06-05T05:50:47.978Z,17.70
2017-06-05T05:53:15.197Z,17.80
2017-06-05T05:55:41.642Z,17.80
2017-06-05T05:58:08.108Z,17.90
2017-06-05T06:00:34.577Z,17.90
2017-06-05T06:03:01.042Z,17.90
2017-06-05T06:05:27.466Z,18.00
2017-06-05T06:07:53.917Z,18.20
2017-06-05T06:10:20.421Z,18.20
2017-06-05T06:12:46.881Z,18.30
2017-06-05T06:15:14.062Z,18.50
2017-06-05T06:17:40.548Z,18.50
2017-06-05T06:20:07.541Z,18.50
2017-06-05T06:22:33.955Z,18.60
2017-06-05T06:25:01.224Z,18.80
2017-06-05T06:27:27.644Z,18.70
2017-06-05T06:29:54.083Z,19.00
2017-06-05T06:32:20.524Z,19.10
2017-06-05T06:34:47.026Z,19.10
2017-06-05T06:37:14.236Z,19.30
2017-06-05T06:39:40.890Z,19.30
2017-06-05T06:42:07.335Z,19.30
2017-06-05T06:44:33.792Z,19.50
2017-06-05T06:47:00.990Z,19.70
2017-06-05T06:49:27.426Z,19.70
2017-06-05T06:51:53.902Z,19.60
2017-06-05T06:54:21.081Z,19.90
2017-06-05T06:56:47.521Z,19.90
2017-06-05T06:59:14.031Z,19.90
2017-06-05T07:01:40.637Z,20.00
2017-06-05T07:04:07.184Z,20.00
2017-06-05T07:06:33.614Z,20.00
2017-06-05T07:09:00.841Z,20.20
2017-06-05T07:11:27.759Z,20.20
2017-06-05T07:13:54.236Z,20.30
2017-06-05T07:16:20.746Z,20.20
2017-06-05T07:18:47.222Z,20.60
2017-06-05T07:21:14.430Z,20.70
2017-06-05T07:23:40.855Z,20.70
2017-06-05T07:26:07.386Z,21.00
2017-06-05T07:28:33.828Z,21.10
2017-06-05T07:31:00.359Z,21.30
2017-06-05T07:33:26.834Z,21.40
2017-06-05T07:35:54.038Z,21.70
2017-06-05T07:38:20.581Z,21.70
2017-06-05T07:40:47.406Z,21.80
2017-06-05T07:43:13.884Z,21.70
2017-06-05T07:45:41.119Z,21.70
2017-06-05T07:48:07.619Z,21.70
2017-06-05T07:50:34.077Z,21.50
2017-06-05T07:53:01.017Z,21.70
2017-06-05T07:55:27.458Z,22.10
2017-06-05T07:57:53.913Z,22.20
2017-06-05T08:00:20.362Z,22.50
2017-06-05T08:02:47.781Z,22.10
2017-06-05T08:05:14.297Z,22.00
2017-06-05T08:07:40.792Z,21.90
2017-06-05T08:10:08.677Z,22.10
2017-06-05T08:12:35.218Z,22.10
2017-06-05T08:15:01.708Z,22.00
2017-06-05T08:17:28.158Z,22.10
2017-06-05T08:19:55.374Z,22.40
2017-06-05T08:22:21.868Z,22.30
2017-06-05T08:24:48.326Z,22.40
2017-06-05T08:27:14.776Z,22.30
2017-06-05T08:29:41.494Z,22.30
2017-06-05T08:32:07.953Z,22.70
2017-06-05T08:34:34.473Z,22.90
2017-06-05T08:37:00.990Z,23.40
2017-06-05T08:39:27.437Z,23.80
2017-06-05T08:41:53.893Z,24.30
2017-06-05T08:44:20.383Z,24.10
2017-06-05T08:46:46.859Z,24.20
2017-06-05T08:49:13.274Z,24.20
2017-06-05T08:51:39.768Z,24.20
2017-06-05T08:54:06.358Z,24.30
2017-06-05T08:56:32.833Z,24.40
2017-06-05T08:58:59.316Z,24.40
2017-06-05T09:01:25.754Z,24.70
2017-06-05T09:03:52.309Z,24.30
2017-06-05T09:06:18.854Z,24.60
2017-06-05T09:08:46.178Z,24.60
2017-06-05T09:11:12.601Z,24.60
2017-06-05T09:13:39.073Z,25.20
2017-06-05T09:16:06.250Z,25.40
2017-06-05T09:18:32.703Z,25.40
2017-06-05T09:20:59.236Z,25.60
2017-06-05T09:23:25.744Z,25.70
2017-06-05T09:25:52.239Z,25.10
2017-06-05T09:28:18.778Z,26.20
2017-06-05T09:30:45.643Z,26.60
2017-06-05T09:33:12.110Z,26.50
2017-06-05T09:35:38.657Z,26.80
2017-06-05T09:38:05.609Z,27.10
2017-06-05T09:40:32.358Z,26.50
2017-06-05T09:43:00.133Z,27.00
2017-06-05T09:45:26.649Z,26.10
2017-06-05T09:47:54.114Z,27.20
2017-06-05T09:50:20.604Z,27.20
2017-06-05T09:52:47.067Z,31.00
2017-06-05T09:55:13.500Z,35.50
2017-06-05T09:57:39.974Z,37.30
2017-06-05T10:00:07.293Z,40.50
2017-06-05T10:02:33.725Z,40.40
2017-06-05T10:05:00.554Z,41.80
2017-06-05T10:07:27.133Z,42.90
2017-06-05T10:09:53.596Z,43.90
2017-06-05T10:12:20.031Z,44.10
2017-06-05T10:14:46.463Z,42.70
2017-06-05T10:17:12.939Z,42.40
2017-06-05T10:19:39.404Z,46.50
2017-06-05T10:22:06.614Z,46.40
2017-06-05T10:24:33.045Z,46.40
2017-06-05T10:26:59.488Z,46.80
2017-06-05T10:29:25.933Z,48.40
2017-06-05T10:31:52.739Z,50.90
2017-06-05T10:34:19.166Z,50.60
2017-06-05T10:36:45.598Z,51.30
2017-06-05T10:39:12.029Z,49.20
2017-06-05T10:41:38.519Z,45.60
2017-06-05T10:44:04.960Z,45.70
2017-06-05T10:46:32.313Z,47.10
2017-06-05T10:48:59.517Z,49.60
2017-06-05T10:51:25.970Z,49.50
2017-06-05T10:53:52.492Z,45.20
2017-06-05T10:56:18.978Z,45.10
2017-06-05T10:58:46.116Z,45.80
2017-06-05T11:01:12.608Z,45.70
2017-06-05T11:03:39.053Z,45.40
2017-06-05T11:06:05.475Z,46.00
2017-06-05T11:08:31.907Z,44.30
2017-06-05T11:10:58.634Z,46.60
2017-06-05T11:13:25.665Z,45.50
2017-06-05T11:15:52.097Z,44.80
2017-06-05T11:18:18.520Z,45.60
2017-06-05T11:20:45.018Z,46.40
2017-06-05T11:23:11.461Z,46.70
2017-06-05T11:25:37.957Z,50.80
2017-06-05T11:28:04.389Z,47.90
2017-06-05T11:30:30.833Z,48.00
2017-06-05T11:32:57.258Z,49.90
2017-06-05T11:35:23.980Z,52.10
2017-06-05T11:37:50.538Z,49.40
2017-06-05T11:40:17.078Z,49.50
2017-06-05T11:42:43.519Z,49.00
2017-06-05T11:45:09.961Z,49.50
2017-06-05T11:47:36.561Z,49.20
2017-06-05T11:50:03.026Z,49.60
2017-06-05T11:52:29.465Z,49.50
2017-06-05T11:54:55.945Z,46.10
2017-06-05T11:57:22.399Z,43.40
2017-06-05T11:59:48.866Z,43.40
2017-06-05T12:02:15.486Z,45.70
2017-06-05T12:04:41.928Z,47.20
2017-06-05T12:07:09.269Z,44.30
2017-06-05T12:09:35.729Z,43.50
2017-06-05T12:12:03.870Z,46.00
2017-06-05T12:14:30.322Z,46.00
2017-06-05T12:16:56.911Z,48.40
2017-06-05T12:19:24.261Z,49.80
2017-06-05T12:21:50.688Z,49.20
2017-06-05T12:24:17.163Z,48.00
2017-06-05T12:26:43.618Z,46.60
2017-06-05T12:29:10.078Z,50.20
2017-06-05T12:31:36.613Z,51.80
2017-06-05T12:34:03.064Z,49.80
2017-06-05T12:36:29.512Z,45.70
2017-06-05T12:38:55.938Z,45.20
2017-06-05T12:41:22.405Z,42.60
2017-06-05T12:43:48.867Z,43.20
2017-06-05T12:46:16.104Z,44.30
2017-06-05T12:48:42.568Z,44.30
2017-06-05T12:51:08.998Z,44.80
2017-06-05T12:53:35.609Z,44.60
2017-06-05T12:58:35.331Z,43.60
2017-06-05T13:01:01.764Z,43.90
2017-06-05T13:03:28.206Z,41.10
2017-06-05T13:05:56.413Z,33.80
2017-06-05T13:08:23.023Z,33.60
2017-06-05T13:10:49.471Z,31.60
2017-06-05T13:13:15.911Z,30.90
2017-06-05T13:15:42.520Z,30.40
2017-06-05T13:18:09.739Z,28.90
2017-06-05T13:20:36.268Z,28.90
2017-06-05T13:25:35.994Z,28.00
2017-06-05T13:28:02.457Z,28.00
2017-06-05T13:30:29.706Z,27.00
2017-06-05T13:32:56.172Z,26.90
2017-06-05T13:35:23.478Z,26.90
2017-06-05T13:37:49.956Z,27.00
2017-06-05T13:40:16.497Z,26.70
2017-06-05T13:42:43.089Z,26.70
2017-06-05T13:45:10.243Z,26.80
2017-06-05T13:47:37.624Z,26.70
2017-06-05T13:50:04.053Z,26.60
2017-06-05T13:52:31.246Z,27.00
2017-06-05T13:54:57.683Z,27.00
2017-06-05T13:57:24.346Z,27.00
2017-06-05T13:59:50.762Z,26.40
2017-06-05T14:02:17.212Z,26.50
2017-06-05T14:04:43.645Z,26.60
2017-06-05T14:07:10.533Z,26.50
2017-06-05T14:09:37.011Z,26.10
2017-06-05T14:12:03.509Z,26.00
2017-06-05T14:14:29.975Z,26.10
2017-06-05T14:16:56.476Z,26.30
2017-06-05T14:19:23.058Z,26.70
2017-06-05T14:21:49.602Z,26.70
2017-06-05T14:24:16.884Z,25.90
2017-06-05T14:26:43.503Z,25.90
2017-06-05T14:29:10.694Z,25.80
2017-06-05T14:31:37.146Z,25.80
2017-06-05T14:34:03.583Z,25.70
2017-06-05T14:36:30.049Z,25.80
2017-06-05T14:38:57.259Z,26.20
2017-06-05T14:41:24.102Z,26.20
2017-06-05T14:43:50.576Z,26.10
2017-06-05T14:46:17.793Z,25.80
2017-06-05T14:48:44.224Z,25.80
2017-06-05T14:51:12.907Z,25.80
2017-06-05T14:53:39.581Z,25.80
2017-06-05T14:56:06.102Z,25.80
2017-06-05T14:58:32.537Z,25.70
2017-06-05T15:00:59.003Z,25.90
2017-06-05T15:03:25.448Z,26.00
2017-06-05T15:05:51.876Z,26.00
2017-06-05T15:08:18.376Z,26.10
2017-06-05T15:10:44.837Z,25.70
2017-06-05T15:13:11.251Z,25.70
2017-06-05T15:15:38.485Z,25.60
2017-06-05T15:18:04.915Z,25.60
2017-06-05T15:20:31.352Z,25.60
2017-06-05T15:22:57.834Z,25.50
2017-06-05T15:25:24.524Z,25.60
2017-06-05T15:27:50.983Z,26.20
2017-06-05T15:30:18.146Z,28.10
2017-06-05T15:32:44.824Z,28.10
2017-06-05T15:35:11.271Z,27.90
2017-06-05T15:37:37.718Z,27.50
2017-06-05T15:40:05.131Z,26.30
2017-06-05T15:42:31.577Z,26.20
2017-06-05T15:44:58.141Z,25.90
2017-06-05T15:47:24.617Z,25.80
2017-06-05T15:49:51.074Z,25.80
2017-06-05T15:52:17.570Z,25.60
2017-06-05T15:54:44.002Z,25.60
2017-06-05T15:57:10.462Z,25.50
2017-06-05T15:59:36.899Z,25.40
2017-06-05T16:02:03.372Z,25.50
2017-06-05T16:04:29.837Z,25.40
2017-06-05T16:06:56.380Z,25.20
2017-06-05T16:09:22.874Z,25.00
2017-06-05T16:11:49.316Z,25.00
2017-06-05T16:14:16.622Z,24.90
2017-06-05T16:16:43.202Z,25.00
2017-06-05T16:19:09.651Z,24.80
2017-06-05T16:21:36.098Z,24.50
2017-06-05T16:24:02.537Z,24.40
2017-06-05T16:26:29.948Z,24.40
2017-06-05T16:28:56.498Z,24.40
2017-06-05T16:31:23.704Z,24.50
2017-06-05T16:33:51.086Z,24.40
2017-06-05T16:36:17.582Z,24.50
2017-06-05T16:38:44.026Z,24.40
2017-06-05T16:41:10.496Z,24.40
2017-06-05T16:43:36.961Z,24.40
2017-06-05T16:46:03.440Z,24.20
2017-06-05T16:48:29.873Z,24.20
2017-06-05T16:50:56.362Z,24.10
2017-06-05T16:53:22.819Z,24.10
2017-06-05T16:55:49.264Z,24.20
2017-06-05T16:58:15.732Z,24.20
2017-06-05T17:00:43.009Z,24.10
2017-06-05T17:03:09.443Z,24.10
2017-06-05T17:05:35.936Z,24.10
2017-06-05T17:08:03.269Z,24.00
2017-06-05T17:10:29.763Z,24.00
2017-06-05T17:12:56.191Z,24.00
2017-06-05T17:15:22.635Z,23.90
2017-06-05T17:17:49.190Z,23.90
2017-06-05T17:20:15.659Z,23.90
2017-06-05T17:22:42.125Z,23.80
2017-06-05T17:25:08.758Z,23.80
2017-06-05T17:27:35.939Z,23.80
2017-06-05T17:30:02.388Z,23.80
2017-06-05T17:32:28.840Z,23.90
2017-06-05T17:34:55.429Z,23.70
2017-06-05T17:37:22.030Z,23.70
2017-06-05T17:39:49.219Z,23.70
2017-06-05T17:42:15.692Z,23.70
2017-06-05T17:44:42.233Z,23.60
2017-06-05T17:47:08.887Z,23.50
2017-06-05T17:49:36.096Z,23.60
2017-06-05T17:52:02.535Z,23.60
2017-06-05T17:54:28.974Z,23.60
2017-06-05T17:56:55.427Z,23.60
2017-06-05T17:59:21.869Z,23.60
2017-06-05T18:01:49.046Z,23.50
2017-06-05T18:04:15.503Z,23.50
2017-06-05T18:06:41.966Z,23.50
2017-06-05T18:09:09.427Z,23.50
2017-06-05T18:11:35.977Z,23.40
2017-06-05T18:14:03.206Z,23.30
2017-06-05T18:16:29.819Z,23.30
2017-06-05T18:18:56.289Z,23.30
2017-06-05T18:21:23.307Z,23.20
2017-06-05T18:23:49.756Z,23.10
2017-06-05T18:26:16.213Z,23.20
2017-06-05T18:28:43.415Z,23.10
2017-06-05T18:31:09.850Z,23.10
2017-06-05T18:33:36.339Z,23.10
2017-06-05T18:36:03.544Z,23.00
2017-06-05T18:38:29.978Z,23.00
2017-06-05T18:40:56.487Z,22.80
2017-06-05T18:43:22.971Z,22.80
2017-06-05T18:45:49.618Z,22.70
2017-06-05T18:48:17.026Z,22.60
2017-06-05T18:50:43.469Z,22.60
2017-06-05T18:53:09.934Z,22.60
2017-06-05T18:55:36.393Z,22.50
2017-06-05T18:58:02.886Z,22.50
2017-06-05T19:00:29.305Z,22.30
2017-06-05T19:02:55.809Z,22.40
2017-06-05T19:05:23.188Z,22.40
2017-06-05T19:07:49.698Z,22.30
2017-06-05T19:10:16.453Z,22.30
2017-06-05T19:12:43.279Z,22.30
2017-06-05T19:15:09.980Z,22.20
2017-06-05T19:17:36.578Z,22.20
2017-06-05T19:20:03.119Z,22.20
2017-06-05T19:22:29.608Z,22.20
2017-06-05T19:24:56.095Z,22.00
2017-06-05T19:27:22.539Z,22.10
2017-06-05T19:29:49.065Z,22.00
2017-06-05T19:32:15.761Z,22.00
2017-06-05T19:34:44.317Z,22.10
2017-06-05T19:37:11.016Z,22.00
2017-06-05T19:39:37.520Z,22.00
2017-06-05T19:42:04.500Z,21.90
2017-06-05T19:44:30.992Z,21.70
2017-06-05T19:47:00.432Z,21.60
2017-06-05T19:49:27.012Z,21.40
2017-06-05T19:51:53.637Z,21.30
2017-06-05T19:54:21.531Z,21.20
2017-06-05T19:56:48.031Z,21.20
2017-06-05T19:59:14.557Z,21.10
2017-06-05T20:01:41.381Z,21.00
2017-06-05T20:04:07.922Z,21.00
2017-06-05T20:06:34.433Z,20.90
2017-06-05T20:09:01.083Z,20.90
2017-06-05T20:11:27.655Z,20.90
2017-06-05T20:13:54.246Z,20.90
2017-06-05T20:16:20.846Z,20.90
2017-06-05T20:18:47.370Z,20.90
2017-06-05T20:21:14.621Z,20.80
2017-06-05T20:23:41.869Z,20.70
2017-06-05T20:26:09.234Z,20.60
2017-06-05T20:28:35.754Z,20.60
2017-06-05T20:31:02.289Z,20.60
2017-06-05T20:33:28.862Z,20.60
2017-06-05T20:35:55.362Z,20.60
2017-06-05T20:38:21.910Z,20.60
2017-06-05T20:40:49.554Z,20.50
2017-06-05T20:43:16.807Z,20.50
2017-06-05T20:45:44.032Z,20.50
2017-06-05T20:48:10.523Z,20.50
2017-06-05T20:50:37.023Z,20.50
2017-06-05T20:53:03.638Z,20.50
2017-06-05T20:55:30.149Z,20.50
2017-06-05T20:57:56.749Z,20.50
2017-06-05T21:00:24.601Z,20.40
2017-06-05T21:02:51.871Z,20.40
2017-06-05T21:05:18.346Z,20.40
2017-06-05T21:07:44.845Z,20.40
2017-06-05T21:10:11.619Z,20.40
2017-06-05T21:12:38.151Z,20.40
2017-06-05T21:15:04.672Z,20.40
2017-06-05T21:17:31.250Z,20.30
2017-06-05T21:19:57.739Z,20.30
2017-06-05T21:22:24.525Z,20.30
2017-06-05T21:24:51.232Z,20.30
2017-06-05T21:27:17.775Z,20.30
2017-06-05T21:29:44.235Z,20.30
2017-06-05T21:32:11.019Z,20.20
2017-06-05T21:34:37.458Z,20.10
2017-06-05T21:37:03.942Z,20.10
2017-06-05T21:39:31.218Z,19.90
2017-06-05T21:41:58.427Z,20.00
2017-06-05T21:44:25.152Z,19.90
2017-06-05T21:46:51.825Z,19.80
2017-06-05T21:49:18.369Z,19.80
2017-06-05T21:51:45.010Z,19.80
2017-06-05T21:54:12.242Z,19.80
2017-06-05T21:56:38.850Z,19.80
2017-06-05T21:59:05.354Z,19.70
2017-06-05T22:01:32.120Z,19.70
2017-06-05T22:03:58.768Z,19.70
2017-06-05T22:06:25.275Z,19.80
2017-06-05T22:08:51.940Z,19.80
2017-06-05T22:11:18.831Z,19.80
2017-06-05T22:13:46.690Z,19.80
2017-06-05T22:16:13.414Z,19.80
2017-06-05T22:18:39.891Z,19.90
2017-06-05T22:21:06.461Z,19.90
2017-06-05T22:23:32.963Z,19.90
2017-06-05T22:25:59.405Z,19.90
2017-06-05T22:28:25.899Z,19.80
2017-06-05T22:30:53.226Z,19.80
2017-06-05T22:33:20.257Z,19.80
2017-06-05T22:35:46.824Z,19.80
2017-06-05T22:38:13.369Z,19.80
2017-06-05T22:40:40.709Z,19.80
2017-06-05T22:43:07.607Z,19.80
2017-06-05T22:45:34.098Z,19.80
2017-06-05T22:48:00.872Z,19.90
2017-06-05T22:50:27.465Z,19.80
2017-06-05T22:52:53.950Z,19.90
2017-06-05T22:55:20.578Z,19.90
2017-06-05T22:57:47.183Z,20.00
2017-06-05T23:00:13.653Z,20.00
2017-06-05T23:02:40.137Z,20.00
2017-06-05T23:05:06.628Z,20.00
2017-06-05T23:07:33.101Z,20.10
2017-06-05T23:09:59.543Z,20.10
2017-06-05T23:12:26.833Z,20.00
2017-06-05T23:14:53.935Z,20.00
2017-06-05T23:17:21.055Z,20.00
2017-06-05T23:19:47.514Z,20.00
2017-06-05T23:22:13.998Z,20.00
2017-06-05T23:24:40.543Z,19.90
2017-06-05T23:27:07.078Z,19.90
2017-06-05T23:29:33.580Z,19.80
2017-06-05T23:32:00.829Z,19.80
2017-06-05T23:34:28.113Z,19.80
2017-06-05T23:36:54.593Z,19.80
2017-06-05T23:39:21.176Z,19.80
2017-06-05T23:41:47.664Z,19.70
2017-06-05T23:44:14.113Z,19.70
2017-06-05T23:46:40.656Z,19.60
2017-06-05T23:49:07.879Z,19.60
2017-06-05T23:51:34.334Z,19.60
2017-06-05T23:54:01.571Z,19.60
2017-06-05T23:56:28.046Z,19.60
2017-06-05T23:58:54.518Z,19.60
